Lost City, West Virginia
Current Conditions -  °F | °C
As of 9:35 PM on Thursday 20 Nov 2014 (Local Time) from KW99 Reporting Station
Clear Clear  
Wind Chill: 32°   Ceiling: Unl
Heat Index: 32°   Visibility: 10mi
Dew Point:   Wind: 0mph
Humidity: 37%   Direction: NA
Pressure: 30.1"   Gusts: NA
Location:  38.93°N, 78.83°W
Report Text: KW99 210235Z AUTO 00000KT 10SM CLR 00/M13 A3010 RMK AO2 T00011130
Loading
Personal Weather Stations






























Interactive Weather Map New forecast layout! Learn more

10-Day Weather Forecast

Advertisements
Track Severe Weather on mobile